createdAt,value
2017-12-20T00:02:09.756Z,102973
2017-12-20T00:04:38.072Z,102974
2017-12-20T00:07:06.380Z,102968
2017-12-20T00:09:34.753Z,102968
2017-12-20T00:12:02.966Z,102970
2017-12-20T00:14:31.212Z,102961
2017-12-20T00:16:59.510Z,102952
2017-12-20T00:19:28.570Z,102962
2017-12-20T00:21:56.828Z,102956
2017-12-20T00:24:25.060Z,102952
2017-12-20T00:26:54.070Z,102963
2017-12-20T00:29:22.347Z,102962
2017-12-20T00:31:50.579Z,102962
2017-12-20T00:34:18.879Z,102963
2017-12-20T00:36:47.933Z,102955
2017-12-20T00:39:16.184Z,102953
2017-12-20T00:41:44.385Z,102961
2017-12-20T00:44:13.499Z,102951
2017-12-20T00:46:41.760Z,102962
2017-12-20T00:49:10.028Z,102959
2017-12-20T00:51:38.278Z,102964
2017-12-20T00:54:06.546Z,102958
2017-12-20T00:56:34.908Z,102966
2017-12-20T00:59:03.920Z,102956
2017-12-20T01:01:32.149Z,102967
2017-12-20T01:04:00.388Z,102959
2017-12-20T01:06:28.678Z,102965
2017-12-20T01:08:56.905Z,102966
2017-12-20T01:11:25.167Z,102972
2017-12-20T01:13:55.126Z,102980
2017-12-20T01:16:23.370Z,102981
2017-12-20T01:18:52.520Z,102979
2017-12-20T01:21:21.636Z,102986
2017-12-20T01:23:49.888Z,102987
2017-12-20T01:26:18.116Z,102984
2017-12-20T01:28:47.121Z,102984
2017-12-20T01:31:15.371Z,102984
2017-12-20T01:33:45.242Z,102994
2017-12-20T01:36:13.489Z,102993
2017-12-20T01:38:41.761Z,102991
2017-12-20T01:41:09.986Z,102992
2017-12-20T01:43:38.226Z,102993
2017-12-20T01:46:06.477Z,103000
2017-12-20T01:48:34.716Z,102999
2017-12-20T01:51:02.972Z,102988
2017-12-20T01:53:31.218Z,102990
2017-12-20T01:55:59.465Z,102995
2017-12-20T01:58:27.719Z,102994
2017-12-20T02:00:55.976Z,102994
2017-12-20T02:03:24.261Z,103000
2017-12-20T02:05:52.490Z,102998
2017-12-20T02:08:20.730Z,102991
2017-12-20T02:10:48.949Z,102982
2017-12-20T02:13:17.251Z,102982
2017-12-20T02:15:45.454Z,102970
2017-12-20T02:18:13.728Z,102975
2017-12-20T02:20:41.967Z,102967
2017-12-20T02:23:10.176Z,102965
2017-12-20T02:25:38.435Z,102957
2017-12-20T02:28:06.631Z,102953
2017-12-20T02:30:34.868Z,102956
2017-12-20T02:33:03.139Z,102955
2017-12-20T02:35:31.353Z,102952
2017-12-20T02:37:59.582Z,102955
2017-12-20T02:40:28.571Z,102960
2017-12-20T02:42:56.790Z,102961
2017-12-20T02:45:25.037Z,102963
2017-12-20T02:47:53.286Z,102963
2017-12-20T02:50:22.306Z,102956
2017-12-20T02:52:50.601Z,102950
2017-12-20T02:55:18.823Z,102945
2017-12-20T02:57:47.097Z,102950
2017-12-20T03:00:16.146Z,102942
2017-12-20T03:02:44.381Z,102944
2017-12-20T03:05:13.386Z,102940
2017-12-20T03:07:41.602Z,102949
2017-12-20T03:10:09.952Z,102933
2017-12-20T03:12:38.187Z,102937
2017-12-20T03:15:06.424Z,102936
2017-12-20T03:17:34.650Z,102937
2017-12-20T03:20:03.683Z,102927
2017-12-20T03:22:32.014Z,102922
2017-12-20T03:25:01.007Z,102911
2017-12-20T03:27:30.044Z,102920
2017-12-20T03:29:58.303Z,102925
2017-12-20T03:32:26.543Z,102917
2017-12-20T03:34:55.540Z,102919
2017-12-20T03:37:24.546Z,102919
2017-12-20T03:39:53.584Z,102925
2017-12-20T03:42:21.843Z,102918
2017-12-20T03:44:50.167Z,102927
2017-12-20T03:47:18.403Z,102927
2017-12-20T03:49:46.666Z,102939
2017-12-20T03:52:14.874Z,102938
2017-12-20T03:54:43.143Z,102946
2017-12-20T03:57:11.394Z,102942
2017-12-20T03:59:39.679Z,102940
2017-12-20T04:02:07.948Z,102940
2017-12-20T04:04:36.187Z,102949
2017-12-20T04:07:04.448Z,102955
2017-12-20T04:09:32.694Z,102956
2017-12-20T04:12:01.431Z,102955
2017-12-20T04:14:30.467Z,102962
2017-12-20T04:16:58.743Z,102956
2017-12-20T04:19:27.029Z,102953
2017-12-20T04:21:55.258Z,102950
2017-12-20T04:24:24.294Z,102947
2017-12-20T04:26:52.616Z,102945
2017-12-20T04:29:20.857Z,102955
2017-12-20T04:31:49.172Z,102942
2017-12-20T04:34:18.222Z,102946
2017-12-20T04:36:46.539Z,102943
2017-12-20T04:39:15.622Z,102946
2017-12-20T04:41:43.861Z,102944
2017-12-20T04:44:12.084Z,102942
2017-12-20T04:46:40.312Z,102936
2017-12-20T04:49:08.531Z,102944
2017-12-20T04:51:36.759Z,102949
2017-12-20T04:54:05.083Z,102944
2017-12-20T04:56:33.400Z,102940
2017-12-20T04:59:01.646Z,102943
2017-12-20T05:01:30.703Z,102951
2017-12-20T05:04:00.500Z,102951
2017-12-20T05:06:28.747Z,102952
2017-12-20T05:08:56.990Z,102959
2017-12-20T05:11:25.232Z,102971
2017-12-20T05:13:53.479Z,102962
2017-12-20T05:16:21.725Z,102968
2017-12-20T05:18:49.986Z,102969
2017-12-20T05:21:18.236Z,102970
2017-12-20T05:23:46.506Z,102973
2017-12-20T05:26:14.744Z,102968
2017-12-20T05:28:43.777Z,102981
2017-12-20T05:31:12.045Z,102976
2017-12-20T05:33:40.732Z,102979
2017-12-20T05:36:09.009Z,102975
2017-12-20T05:38:37.292Z,102976
2017-12-20T05:41:05.539Z,102975
2017-12-20T05:43:33.958Z,102966
2017-12-20T05:46:03.515Z,102967
2017-12-20T05:48:31.846Z,102975
2017-12-20T05:51:00.270Z,102976
2017-12-20T05:53:29.298Z,102975
2017-12-20T05:55:58.181Z,102977
2017-12-20T05:58:26.465Z,102975
2017-12-20T06:00:54.728Z,102970
2017-12-20T06:03:23.035Z,102988
2017-12-20T06:05:51.304Z,102982
2017-12-20T06:08:19.534Z,102986
2017-12-20T06:10:48.578Z,102991
2017-12-20T06:13:16.859Z,102979
2017-12-20T06:15:45.178Z,102994
2017-12-20T06:18:14.275Z,102992
2017-12-20T06:20:43.344Z,103002
2017-12-20T06:23:11.600Z,102997
2017-12-20T06:25:39.856Z,102996
2017-12-20T06:28:08.092Z,102995
2017-12-20T06:30:36.353Z,103002
2017-12-20T06:33:04.791Z,103001
2017-12-20T06:35:33.121Z,103000
2017-12-20T06:38:03.692Z,103011
2017-12-20T06:40:32.674Z,103005
2017-12-20T06:43:00.970Z,102998
2017-12-20T06:45:29.999Z,102995
2017-12-20T06:47:58.261Z,103001
2017-12-20T06:50:26.592Z,103000
2017-12-20T06:52:54.864Z,102997
2017-12-20T06:55:23.193Z,103006
2017-12-20T06:57:51.443Z,103010
2017-12-20T07:00:19.723Z,103013
2017-12-20T07:02:47.977Z,103011
2017-12-20T07:05:16.293Z,103019
2017-12-20T07:07:45.006Z,103019
2017-12-20T07:10:13.377Z,103012
2017-12-20T07:12:41.664Z,103014
2017-12-20T07:15:12.565Z,103026
2017-12-20T07:17:40.936Z,103018
2017-12-20T07:20:09.286Z,103016
2017-12-20T07:22:37.562Z,103018
2017-12-20T07:25:05.919Z,103024
2017-12-20T07:27:35.060Z,103028
2017-12-20T07:30:03.991Z,103033
2017-12-20T07:32:32.263Z,103041
2017-12-20T07:35:00.540Z,103037
2017-12-20T07:37:28.998Z,103045
2017-12-20T07:39:57.257Z,103047
2017-12-20T07:42:26.300Z,103043
2017-12-20T07:44:54.530Z,103049
2017-12-20T07:47:22.774Z,103047
2017-12-20T07:49:51.782Z,103052
2017-12-20T07:52:20.020Z,103050
2017-12-20T07:54:48.282Z,103058
2017-12-20T07:57:16.548Z,103054
2017-12-20T07:59:44.783Z,103053
2017-12-20T08:02:13.088Z,103050
2017-12-20T08:04:41.330Z,103061
2017-12-20T08:07:09.668Z,103042
2017-12-20T08:09:37.962Z,103044
2017-12-20T08:12:06.219Z,103041
2017-12-20T08:14:34.522Z,103039
2017-12-20T08:17:02.797Z,103041
2017-12-20T08:19:31.975Z,103039
2017-12-20T08:22:00.467Z,103037
2017-12-20T08:24:29.713Z,103038
2017-12-20T08:26:57.994Z,103036
2017-12-20T08:29:26.265Z,103046
2017-12-20T08:31:54.579Z,103039
2017-12-20T08:34:22.834Z,103038
2017-12-20T08:36:51.118Z,103028
2017-12-20T08:39:19.387Z,103036
2017-12-20T08:41:47.653Z,103042
2017-12-20T08:44:15.996Z,103047
2017-12-20T08:46:45.019Z,103047
2017-12-20T08:49:13.291Z,103053
2017-12-20T08:51:41.563Z,103056
2017-12-20T08:54:09.880Z,103055
2017-12-20T08:56:38.138Z,103060
2017-12-20T08:59:06.407Z,103064
2017-12-20T09:01:34.690Z,103070
2017-12-20T09:04:02.970Z,103057
2017-12-20T09:06:31.224Z,103056
2017-12-20T09:08:59.501Z,103058
2017-12-20T09:11:27.820Z,103057
2017-12-20T09:13:56.063Z,103064
2017-12-20T09:16:24.469Z,103067
2017-12-20T09:18:52.708Z,103066
2017-12-20T09:21:21.161Z,103063
2017-12-20T09:23:50.149Z,103061
2017-12-20T09:26:19.176Z,103057
2017-12-20T09:28:47.594Z,103069
2017-12-20T09:31:15.848Z,103067
2017-12-20T09:33:44.156Z,103066
2017-12-20T09:36:12.407Z,103060
2017-12-20T09:38:40.657Z,103069
2017-12-20T09:41:09.022Z,103072
2017-12-20T09:43:38.106Z,103069
2017-12-20T09:46:06.313Z,103072
2017-12-20T09:48:34.600Z,103063
2017-12-20T09:51:02.894Z,103061
2017-12-20T09:53:31.196Z,103065
2017-12-20T09:55:59.459Z,103069
2017-12-20T09:58:27.856Z,103078
2017-12-20T10:00:56.955Z,103081
2017-12-20T10:03:25.220Z,103083
2017-12-20T10:05:53.632Z,103079
2017-12-20T10:08:21.890Z,103076
2017-12-20T10:10:50.921Z,103077
2017-12-20T10:13:19.251Z,103075
2017-12-20T10:15:47.523Z,103070
2017-12-20T10:18:15.790Z,103071
2017-12-20T10:20:44.118Z,103064
2017-12-20T10:23:12.436Z,103061
2017-12-20T10:25:40.638Z,103062
2017-12-20T10:28:10.438Z,103061
2017-12-20T10:30:38.704Z,103046
2017-12-20T10:33:06.943Z,103049
2017-12-20T10:35:35.226Z,103052
2017-12-20T10:38:03.459Z,103042
2017-12-20T10:40:33.691Z,103049
2017-12-20T10:43:01.963Z,103045
2017-12-20T10:45:30.998Z,103038
2017-12-20T10:47:59.403Z,103031
2017-12-20T10:50:27.627Z,103030
2017-12-20T10:52:55.905Z,103042
2017-12-20T10:55:24.159Z,103033
2017-12-20T10:57:53.076Z,103027
2017-12-20T11:00:21.424Z,103026
2017-12-20T11:02:50.460Z,103030
2017-12-20T11:05:18.680Z,103033
2017-12-20T11:07:46.914Z,103030
2017-12-20T11:10:15.166Z,103030
2017-12-20T11:12:43.430Z,103032
2017-12-20T11:15:14.764Z,103028
2017-12-20T11:17:43.860Z,103028
2017-12-20T11:20:12.907Z,103029
2017-12-20T11:22:41.202Z,103037
2017-12-20T11:25:09.484Z,103031
2017-12-20T11:27:39.246Z,103021
2017-12-20T11:30:07.569Z,103017
2017-12-20T11:32:35.786Z,103025
2017-12-20T11:35:04.058Z,103013
2017-12-20T11:37:32.388Z,103017
2017-12-20T11:40:00.730Z,103013
2017-12-20T11:42:29.066Z,103013
2017-12-20T11:45:01.008Z,103021
2017-12-20T11:47:30.185Z,103023
2017-12-20T11:49:58.439Z,103015
2017-12-20T11:52:26.730Z,103010
2017-12-20T11:54:55.007Z,103013
2017-12-20T11:57:23.317Z,102998
2017-12-20T11:59:51.531Z,102997
2017-12-20T12:02:20.586Z,102991
2017-12-20T12:04:48.859Z,102998
2017-12-20T12:07:17.158Z,103001
2017-12-20T12:09:46.175Z,103004
2017-12-20T12:12:14.434Z,102995
2017-12-20T12:14:43.455Z,102990
2017-12-20T12:17:11.686Z,102998
2017-12-20T12:19:39.996Z,102996
2017-12-20T12:22:08.764Z,102997
2017-12-20T12:24:37.024Z,102983
2017-12-20T12:27:05.243Z,102987
2017-12-20T12:29:33.488Z,102986
2017-12-20T12:32:02.587Z,102986
2017-12-20T12:34:30.854Z,102985
2017-12-20T12:36:59.263Z,102979
2017-12-20T12:39:27.638Z,102983
2017-12-20T12:41:56.653Z,102983
2017-12-20T12:44:24.897Z,102983
2017-12-20T12:46:53.120Z,102989
2017-12-20T12:49:21.392Z,102990
2017-12-20T12:51:50.425Z,102994
2017-12-20T12:54:18.750Z,102983
2017-12-20T12:56:47.008Z,102984
2017-12-20T12:59:16.002Z,102995
2017-12-20T13:01:44.289Z,102979
2017-12-20T13:04:12.528Z,102981
2017-12-20T13:06:40.984Z,102974
2017-12-20T13:09:09.231Z,102969
2017-12-20T13:11:37.467Z,102969
2017-12-20T13:14:06.488Z,102964
2017-12-20T13:16:34.735Z,102959
2017-12-20T13:19:03.935Z,102961
2017-12-20T13:21:32.984Z,102966
2017-12-20T13:24:01.204Z,102950
2017-12-20T13:26:30.251Z,102958
2017-12-20T13:28:58.475Z,102950
2017-12-20T13:31:27.468Z,102958
2017-12-20T13:33:55.746Z,102962
2017-12-20T13:36:24.755Z,102960
2017-12-20T13:38:52.985Z,102965
2017-12-20T13:41:21.266Z,102959
2017-12-20T13:43:49.555Z,102952
2017-12-20T13:46:17.810Z,102953
2017-12-20T13:48:46.046Z,102943
2017-12-20T13:51:14.305Z,102932
2017-12-20T13:53:43.305Z,102941
2017-12-20T13:56:11.557Z,102943
2017-12-20T13:58:40.899Z,102941
2017-12-20T14:01:09.230Z,102952
2017-12-20T14:03:38.284Z,102955
2017-12-20T14:06:06.570Z,102971
2017-12-20T14:08:34.914Z,102958
2017-12-20T14:11:03.185Z,102961
2017-12-20T14:13:31.437Z,102971
2017-12-20T14:16:00.456Z,102969
2017-12-20T14:18:28.702Z,102959
2017-12-20T14:20:57.759Z,102960
2017-12-20T14:23:25.976Z,102958
2017-12-20T14:25:54.996Z,102958
2017-12-20T14:28:23.482Z,102960
2017-12-20T14:33:27.093Z,102978
2017-12-20T14:35:55.367Z,102969
2017-12-20T14:38:23.633Z,102966
2017-12-20T14:40:51.925Z,102962
2017-12-20T14:43:20.175Z,102966
2017-12-20T14:45:49.412Z,102972
2017-12-20T14:48:17.705Z,102976
2017-12-20T14:50:45.974Z,102968
2017-12-20T14:53:14.317Z,102983
2017-12-20T14:55:43.388Z,102979
2017-12-20T14:58:11.693Z,102976
2017-12-20T15:00:39.971Z,102978
2017-12-20T15:03:08.273Z,102974
2017-12-20T15:05:36.567Z,102977
2017-12-20T15:08:04.838Z,102984
2017-12-20T15:10:33.108Z,102982
2017-12-20T15:13:01.365Z,102990
2017-12-20T15:15:29.657Z,102991
2017-12-20T15:17:57.906Z,102988
2017-12-20T15:20:26.167Z,102972
2017-12-20T15:22:55.186Z,102969
2017-12-20T15:25:23.479Z,102971
2017-12-20T15:27:52.506Z,102964
2017-12-20T15:30:20.754Z,102964
2017-12-20T15:32:49.021Z,102958
2017-12-20T15:35:17.249Z,102961
2017-12-20T15:37:46.272Z,102947
2017-12-20T15:40:14.498Z,102953
2017-12-20T15:42:42.764Z,102949
2017-12-20T15:45:11.081Z,102947
2017-12-20T15:47:40.132Z,102947
2017-12-20T15:50:08.408Z,102948
2017-12-20T15:52:36.738Z,102948
2017-12-20T15:55:05.878Z,102947
2017-12-20T15:57:34.149Z,102950
2017-12-20T16:00:02.377Z,102952
2017-12-20T16:02:31.463Z,102969
2017-12-20T16:05:00.502Z,102972
2017-12-20T16:07:28.793Z,102972
2017-12-20T16:09:57.036Z,102982
2017-12-20T16:12:25.263Z,102990
2017-12-20T16:14:54.186Z,102995
2017-12-20T16:17:22.484Z,102985
2017-12-20T16:19:50.720Z,102992
2017-12-20T16:22:19.015Z,102997
2017-12-20T16:24:48.097Z,102997
2017-12-20T16:27:17.131Z,103002
2017-12-20T16:29:45.473Z,103006
2017-12-20T16:32:13.747Z,103001
2017-12-20T16:34:42.738Z,102998
2017-12-20T16:37:11.738Z,102992
2017-12-20T16:39:40.755Z,102998
2017-12-20T16:42:09.005Z,102993
2017-12-20T16:44:37.996Z,102995
2017-12-20T16:47:06.239Z,102996
2017-12-20T16:49:34.506Z,102988
2017-12-20T16:52:02.802Z,102985
2017-12-20T16:54:32.235Z,102985
2017-12-20T16:57:00.562Z,102986
2017-12-20T16:59:28.828Z,102983
2017-12-20T17:01:57.152Z,102980
2017-12-20T17:04:25.401Z,102980
2017-12-20T17:06:53.685Z,102982
2017-12-20T17:09:21.941Z,102972
2017-12-20T17:11:50.326Z,102968
2017-12-20T17:14:18.540Z,102969
2017-12-20T17:16:47.598Z,102961
2017-12-20T17:19:15.855Z,102972
2017-12-20T17:21:44.099Z,102969
2017-12-20T17:24:15.842Z,102971
2017-12-20T17:26:44.847Z,102970
2017-12-20T17:29:13.680Z,102970
2017-12-20T17:31:41.970Z,102979
2017-12-20T17:34:10.262Z,102981
2017-12-20T17:36:38.430Z,102982
2017-12-20T17:39:06.730Z,102982
2017-12-20T17:41:35.791Z,102976
2017-12-20T17:44:05.147Z,102973
2017-12-20T17:46:33.476Z,102975
2017-12-20T17:49:01.799Z,102983
2017-12-20T17:51:30.081Z,102970
2017-12-20T17:53:58.436Z,102976
2017-12-20T17:56:28.007Z,102977
2017-12-20T17:58:58.255Z,102977
2017-12-20T18:01:26.591Z,102980
2017-12-20T18:03:54.879Z,102988
2017-12-20T18:06:23.761Z,102984
2017-12-20T18:08:52.053Z,102991
2017-12-20T18:11:20.325Z,102984
2017-12-20T18:13:48.592Z,102991
2017-12-20T18:16:16.891Z,102991
2017-12-20T18:18:45.146Z,102979
2017-12-20T18:21:13.460Z,102986
2017-12-20T18:23:42.576Z,102977
2017-12-20T18:26:11.456Z,102980
2017-12-20T18:28:40.465Z,102985
2017-12-20T18:31:08.774Z,102987
2017-12-20T18:33:37.040Z,102972
2017-12-20T18:36:05.347Z,102969
2017-12-20T18:38:33.687Z,102974
2017-12-20T18:41:02.024Z,102982
2017-12-20T18:43:30.260Z,102977
2017-12-20T18:45:58.633Z,102974
2017-12-20T18:48:26.836Z,102972
2017-12-20T18:50:55.233Z,102980
2017-12-20T18:53:23.558Z,102982
2017-12-20T18:55:51.888Z,102992
2017-12-20T18:58:20.164Z,102993
2017-12-20T19:00:49.178Z,102982
2017-12-20T19:03:18.170Z,102986
2017-12-20T19:05:46.420Z,102981
2017-12-20T19:08:14.685Z,102994
2017-12-20T19:10:42.989Z,102995
2017-12-20T19:13:12.121Z,102994
2017-12-20T19:15:40.577Z,102975
2017-12-20T19:18:09.662Z,102988
2017-12-20T19:20:38.762Z,102994
2017-12-20T19:23:07.784Z,102988
2017-12-20T19:25:36.130Z,102990
2017-12-20T19:28:05.188Z,102987
2017-12-20T19:30:33.394Z,102993
2017-12-20T19:33:02.415Z,102978
2017-12-20T19:35:30.745Z,102977
2017-12-20T19:37:59.560Z,102966
2017-12-20T19:40:28.669Z,102952
2017-12-20T19:42:57.887Z,102950
2017-12-20T19:45:26.262Z,102951
2017-12-20T19:47:54.532Z,102943
2017-12-20T19:50:22.844Z,102943
2017-12-20T19:52:51.175Z,102947
2017-12-20T19:55:19.441Z,102948
2017-12-20T19:57:49.655Z,102952
2017-12-20T20:00:18.086Z,102965
2017-12-20T20:02:46.348Z,102959
2017-12-20T20:05:14.596Z,102960
2017-12-20T20:07:42.885Z,102955
2017-12-20T20:10:11.204Z,102959
2017-12-20T20:12:39.486Z,102963
2017-12-20T20:15:07.764Z,102953
2017-12-20T20:17:36.184Z,102950
2017-12-20T20:20:04.480Z,102945
2017-12-20T20:22:32.831Z,102940
2017-12-20T20:25:01.579Z,102908
2017-12-20T20:27:29.882Z,102913
2017-12-20T20:29:58.169Z,102924
2017-12-20T20:32:27.211Z,102927
2017-12-20T20:34:55.513Z,102917
2017-12-20T20:37:23.741Z,102917
2017-12-20T20:39:53.107Z,102929
2017-12-20T20:42:21.400Z,102916
2017-12-20T20:44:49.771Z,102915
2017-12-20T20:47:18.877Z,102928
2017-12-20T20:49:47.869Z,102914
2017-12-20T20:52:16.900Z,102916
2017-12-20T20:54:45.189Z,102926
2017-12-20T20:57:13.506Z,102925
2017-12-20T20:59:41.990Z,102927
2017-12-20T21:02:10.222Z,102937
2017-12-20T21:04:38.619Z,102951
2017-12-20T21:07:07.084Z,102950
2017-12-20T21:09:35.356Z,102956
2017-12-20T21:12:03.874Z,102947
2017-12-20T21:14:32.967Z,102936
2017-12-20T21:17:01.268Z,102945
2017-12-20T21:19:30.278Z,102951
2017-12-20T21:21:58.580Z,102938
2017-12-20T21:24:26.941Z,102944
2017-12-20T21:26:55.205Z,102947
2017-12-20T21:29:23.511Z,102946
2017-12-20T21:31:51.818Z,102934
2017-12-20T21:34:20.120Z,102927
2017-12-20T21:36:48.432Z,102923
2017-12-20T21:39:16.713Z,102922
2017-12-20T21:41:45.268Z,102926
2017-12-20T21:44:13.765Z,102922
2017-12-20T21:46:42.094Z,102920
2017-12-20T21:49:10.354Z,102908
2017-12-20T21:51:38.591Z,102918
2017-12-20T21:54:06.853Z,102933
2017-12-20T21:56:35.128Z,102929
2017-12-20T21:59:03.458Z,102930
2017-12-20T22:01:31.697Z,102934
2017-12-20T22:04:00.021Z,102923
2017-12-20T22:06:28.297Z,102908
2017-12-20T22:08:56.535Z,102925
2017-12-20T22:11:24.795Z,102932
2017-12-20T22:13:52.996Z,102933
2017-12-20T22:16:21.332Z,102925
2017-12-20T22:18:49.546Z,102922
2017-12-20T22:21:17.819Z,102934
2017-12-20T22:23:46.056Z,102931
2017-12-20T22:26:15.120Z,102917
2017-12-20T22:28:43.345Z,102913
2017-12-20T22:31:11.638Z,102918
2017-12-20T22:33:39.887Z,102930
2017-12-20T22:36:08.107Z,102917
2017-12-20T22:38:36.416Z,102917
2017-12-20T22:41:04.830Z,102906
2017-12-20T22:43:33.124Z,102908
2017-12-20T22:46:01.372Z,102905
2017-12-20T22:48:29.601Z,102902
2017-12-20T22:50:57.856Z,102897
2017-12-20T22:53:26.104Z,102886
2017-12-20T22:55:54.446Z,102886
2017-12-20T22:58:22.713Z,102881
2017-12-20T23:00:51.694Z,102888
2017-12-20T23:03:20.046Z,102897
2017-12-20T23:05:48.327Z,102886
2017-12-20T23:08:16.572Z,102905
2017-12-20T23:10:44.832Z,102911
2017-12-20T23:13:13.890Z,102921
2017-12-20T23:15:42.967Z,102907
2017-12-20T23:18:11.211Z,102905
2017-12-20T23:20:39.514Z,102908
2017-12-20T23:23:07.775Z,102905
2017-12-20T23:25:36.034Z,102909
2017-12-20T23:28:05.018Z,102911
2017-12-20T23:30:34.921Z,102904
2017-12-20T23:33:03.360Z,102900
2017-12-20T23:35:31.599Z,102902
2017-12-20T23:38:00.645Z,102912
2017-12-20T23:40:28.894Z,102884
2017-12-20T23:42:57.104Z,102896
2017-12-20T23:45:25.329Z,102879
2017-12-20T23:47:53.539Z,102884
2017-12-20T23:50:21.832Z,102878
2017-12-20T23:52:50.053Z,102870
2017-12-20T23:55:18.286Z,102873
2017-12-20T23:57:46.507Z,102877
